Time;durP1;ratioP1;P1;durP2;ratioP2;P2;SDS_P1;SDS_P2;PMS_P1;PMS_P2;Temp;Humidity;BMP_temperature;BMP_pressure;BME280_temperature;BME280_humidity;BME280_pressure;Samples;Min_cycle;Max_cycle;Signal;HPM_P1;HPM_P2
2023/03/15 00:01:58;;;;;;;9.68;1.33;;;;;;;;;;4922844;29;20395;-64
2023/03/15 00:04:25;;;;;;;9.45;1.23;;;;;;;;;;4920909;28;20055;-65
2023/03/15 00:06:52;;;;;;;17.00;1.58;;;;;;;;;;4937642;28;20130;-65
2023/03/15 00:09:18;;;;;;;10.27;1.60;;;;;;;;;;4940281;28;20102;-65
2023/03/15 00:11:45;;;;;;;6.90;0.98;;;;;;;;;;4937495;28;20059;-64
2023/03/15 00:14:11;;;;;;;7.50;1.52;;;;;;;;;;4937533;28;20412;-65
2023/03/15 00:16:37;;;;;;;11.25;1.25;;;;;;;;;;4936253;28;20632;-65
2023/03/15 00:19:03;;;;;;;8.25;1.40;;;;;;;;;;4940394;28;20035;-64
2023/03/15 00:21:29;;;;;;;9.57;1.33;;;;;;;;;;4934983;28;20059;-65
2023/03/15 00:23:56;;;;;;;13.45;1.10;;;;;;;;;;4922413;29;20046;-64
2023/03/15 00:26:22;;;;;;;11.45;1.30;;;;;;;;;;4937350;28;20082;-65
2023/03/15 00:28:48;;;;;;;9.65;1.85;;;;;;;;;;4919110;29;20058;-65
2023/03/15 00:31:17;;;;;;;8.57;1.10;;;;;;;;;;4938182;28;20058;-65
2023/03/15 00:33:43;;;;;;;11.80;1.52;;;;;;;;;;4938687;28;20044;-65
2023/03/15 00:36:11;;;;;;;9.75;1.33;;;;;;;;;;4936940;28;20051;-65
2023/03/15 00:38:38;;;;;;;12.13;1.60;;;;;;;;;;4943327;28;20553;-65
2023/03/15 00:41:05;;;;;;;12.07;1.55;;;;;;;;;;4939189;28;20122;-65
2023/03/15 00:43:32;;;;;;;7.50;1.50;;;;;;;;;;4919558;28;20066;-65
2023/03/15 00:45:58;;;;;;;8.68;1.40;;;;;;;;;;4921160;28;20065;-65
2023/03/15 00:48:24;;;;;;;7.30;1.02;;;;;;;;;;4939317;28;20126;-65
2023/03/15 00:50:51;;;;;;;9.27;1.60;;;;;;;;;;4928037;28;20094;-65
2023/03/15 00:53:17;;;;;;;9.43;1.40;;;;;;;;;;4902445;29;20492;-65
2023/03/15 00:55:43;;;;;;;11.65;1.38;;;;;;;;;;4916675;29;20047;-65
2023/03/15 00:58:09;;;;;;;9.85;1.25;;;;;;;;;;4918106;29;20040;-65
2023/03/15 01:00:37;;;;;;;8.32;1.00;;;;;;;;;;4918645;29;20098;-65
2023/03/15 01:03:03;;;;;;;6.03;1.00;;;;;;;;;;4916757;29;20047;-65
2023/03/15 01:05:30;;;;;;;9.55;1.23;;;;;;;;;;4902339;29;20530;-65
2023/03/15 01:07:56;;;;;;;10.52;1.40;;;;;;;;;;4920228;29;20058;-65
2023/03/15 01:10:22;;;;;;;15.95;2.03;;;;;;;;;;4918157;29;20044;-65
2023/03/15 01:12:48;;;;;;;8.77;1.80;;;;;;;;;;4918440;29;20410;-65
2023/03/15 01:15:15;;;;;;;11.68;2.25;;;;;;;;;;4915723;29;20135;-65
2023/03/15 01:17:41;;;;;;;14.25;1.65;;;;;;;;;;4918373;29;20055;-65
2023/03/15 01:20:08;;;;;;;16.63;3.08;;;;;;;;;;4903804;29;20051;-65
2023/03/15 01:22:34;;;;;;;10.02;2.30;;;;;;;;;;4919662;29;20717;-65
2023/03/15 01:25:00;;;;;;;9.85;1.20;;;;;;;;;;4918345;29;20556;-65
2023/03/15 01:27:26;;;;;;;8.25;1.40;;;;;;;;;;4905471;29;20104;-65
2023/03/15 01:29:53;;;;;;;12.13;1.67;;;;;;;;;;4923794;29;20040;-65
2023/03/15 01:32:19;;;;;;;7.22;1.73;;;;;;;;;;4925954;29;20440;-65
2023/03/15 01:34:45;;;;;;;9.40;1.42;;;;;;;;;;4929400;29;20094;-65
2023/03/15 01:37:13;;;;;;;6.70;1.40;;;;;;;;;;4927374;29;20070;-65
2023/03/15 01:39:40;;;;;;;11.80;1.13;;;;;;;;;;4927824;29;20048;-65
2023/03/15 01:42:06;;;;;;;5.40;1.08;;;;;;;;;;4924338;29;20396;-65
2023/03/15 01:44:56;;;;;;;10.85;1.50;;;;;;;;;;4907471;29;20143;-65
2023/03/15 01:47:24;;;;;;;7.20;1.38;;;;;;;;;;4924260;29;20130;-65
2023/03/15 01:49:55;;;;;;;6.32;1.48;;;;;;;;;;4925987;28;20043;-65
2023/03/15 01:52:23;;;;;;;8.38;1.10;;;;;;;;;;4927847;29;20161;-65
2023/03/15 01:54:53;;;;;;;6.57;1.85;;;;;;;;;;4948059;28;20352;-65
2023/03/15 01:57:23;;;;;;;7.25;1.30;;;;;;;;;;4945544;28;20403;-65
2023/03/15 01:59:52;;;;;;;8.30;1.15;;;;;;;;;;4942944;28;20039;-65
2023/03/15 02:02:21;;;;;;;8.23;0.95;;;;;;;;;;4923021;29;20047;-65
2023/03/15 02:04:49;;;;;;;5.18;0.90;;;;;;;;;;4923156;28;20059;-65
2023/03/15 02:07:17;;;;;;;9.10;1.05;;;;;;;;;;4939995;28;20036;-65
2023/03/15 02:09:50;;;;;;;8.27;1.50;;;;;;;;;;4923064;29;20399;-65
2023/03/15 02:12:17;;;;;;;7.97;1.38;;;;;;;;;;4940335;28;20067;-65
2023/03/15 02:14:44;;;;;;;8.35;1.30;;;;;;;;;;4920130;28;20666;-65
2023/03/15 02:17:10;;;;;;;6.65;1.05;;;;;;;;;;4922259;29;20434;-65
2023/03/15 02:19:41;;;;;;;13.80;1.23;;;;;;;;;;4941105;28;20118;-65
2023/03/15 02:22:14;;;;;;;6.90;2.35;;;;;;;;;;4924342;29;20059;-66
2023/03/15 02:24:43;;;;;;;10.73;1.10;;;;;;;;;;4936611;28;20054;-65
2023/03/15 02:27:09;;;;;;;5.82;1.35;;;;;;;;;;4937170;28;20703;-65
2023/03/15 02:29:36;;;;;;;7.97;1.50;;;;;;;;;;4938869;28;20554;-65
2023/03/15 02:32:03;;;;;;;7.32;1.38;;;;;;;;;;4939129;28;20059;-65
2023/03/15 02:34:30;;;;;;;4.55;1.10;;;;;;;;;;4938190;28;20187;-65
2023/03/15 02:36:56;;;;;;;6.32;1.30;;;;;;;;;;4935150;28;20202;-65
2023/03/15 02:42:46;;;;;;;4.97;1.05;;;;;;;;;;4948530;28;20042;-65
2023/03/15 02:45:13;;;;;;;9.30;1.33;;;;;;;;;;4949123;28;20557;-65
2023/03/15 02:47:39;;;;;;;5.13;1.60;;;;;;;;;;4952583;28;20491;-64
2023/03/15 02:50:07;;;;;;;8.38;1.38;;;;;;;;;;4945667;28;20043;-65
2023/03/15 02:52:33;;;;;;;6.80;0.98;;;;;;;;;;4933597;29;20086;-65
2023/03/15 02:55:01;;;;;;;9.80;1.20;;;;;;;;;;4934087;29;20446;-65
2023/03/15 02:57:27;;;;;;;9.05;1.63;;;;;;;;;;4928457;29;20391;-65
2023/03/15 02:59:53;;;;;;;10.63;1.02;;;;;;;;;;4911483;29;20043;-65
2023/03/15 03:02:20;;;;;;;8.38;2.70;;;;;;;;;;4912569;29;20080;-65
2023/03/15 03:04:47;;;;;;;9.40;1.05;;;;;;;;;;4932798;29;20047;-66
2023/03/15 03:07:13;;;;;;;10.13;1.45;;;;;;;;;;4928689;29;20036;-65
2023/03/15 03:09:39;;;;;;;12.70;1.65;;;;;;;;;;4933416;29;20842;-65
2023/03/15 03:12:05;;;;;;;13.43;1.60;;;;;;;;;;4930767;29;20164;-65
2023/03/15 03:14:31;;;;;;;8.57;1.70;;;;;;;;;;4932911;29;20082;-65
2023/03/15 03:16:57;;;;;;;7.63;1.45;;;;;;;;;;4927570;29;20083;-65
2023/03/15 03:19:24;;;;;;;9.63;1.40;;;;;;;;;;4931643;29;20047;-65
2023/03/15 03:21:53;;;;;;;6.82;1.15;;;;;;;;;;4932096;29;20047;-65
2023/03/15 03:24:20;;;;;;;9.38;1.98;;;;;;;;;;4911725;29;20082;-65
2023/03/15 03:26:46;;;;;;;12.20;1.80;;;;;;;;;;4931263;29;20039;-65
2023/03/15 03:29:15;;;;;;;11.13;1.77;;;;;;;;;;4930952;29;20083;-65
2023/03/15 03:31:43;;;;;;;7.15;1.33;;;;;;;;;;4912939;29;20106;-65
2023/03/15 03:34:11;;;;;;;7.68;1.52;;;;;;;;;;4929149;29;20507;-65
2023/03/15 03:36:37;;;;;;;9.25;1.63;;;;;;;;;;4933218;29;20066;-65
2023/03/15 03:39:03;;;;;;;10.63;2.03;;;;;;;;;;4930300;29;20078;-65
2023/03/15 03:41:29;;;;;;;18.05;2.08;;;;;;;;;;4931459;29;20107;-65
2023/03/15 03:43:55;;;;;;;16.80;2.25;;;;;;;;;;4930775;29;20051;-65
2023/03/15 03:46:21;;;;;;;15.00;2.25;;;;;;;;;;4908750;29;20174;-65
2023/03/15 03:48:48;;;;;;;9.40;1.15;;;;;;;;;;4926900;29;20071;-65
2023/03/15 03:51:14;;;;;;;12.90;2.20;;;;;;;;;;4938796;28;20290;-65
2023/03/15 03:53:40;;;;;;;16.80;1.85;;;;;;;;;;4945365;28;20058;-65
2023/03/15 03:56:07;;;;;;;9.55;1.50;;;;;;;;;;4945589;28;20109;-65
2023/03/15 03:58:33;;;;;;;13.50;1.48;;;;;;;;;;4943756;28;20035;-65
2023/03/15 04:00:59;;;;;;;12.25;1.90;;;;;;;;;;4944151;28;20043;-65
2023/03/15 04:03:26;;;;;;;15.60;2.10;;;;;;;;;;4945467;28;20031;-66
2023/03/15 04:05:53;;;;;;;13.40;1.67;;;;;;;;;;4943245;28;20058;-66
2023/03/15 04:08:20;;;;;;;13.88;1.65;;;;;;;;;;4943915;28;20043;-65
2023/03/15 04:10:49;;;;;;;8.57;1.52;;;;;;;;;;4945059;28;20067;-65
2023/03/15 04:13:15;;;;;;;8.00;1.38;;;;;;;;;;4942767;28;20051;-65
2023/03/15 04:15:41;;;;;;;16.70;1.80;;;;;;;;;;4940219;28;20059;-65
2023/03/15 04:18:07;;;;;;;11.73;1.75;;;;;;;;;;4943750;28;20138;-65
2023/03/15 04:20:33;;;;;;;13.50;2.08;;;;;;;;;;4944238;28;20047;-65
2023/03/15 04:23:00;;;;;;;9.63;1.52;;;;;;;;;;4945483;28;20039;-65
2023/03/15 04:25:26;;;;;;;11.60;1.60;;;;;;;;;;4944376;28;20137;-65
2023/03/15 04:28:01;;;;;;;16.33;2.58;;;;;;;;;;4942919;28;20650;-66
2023/03/15 04:30:28;;;;;;;13.60;2.25;;;;;;;;;;4944350;28;20058;-65
2023/03/15 04:32:58;;;;;;;9.90;1.83;;;;;;;;;;4943211;28;20047;-65
2023/03/15 04:35:28;;;;;;;14.57;2.40;;;;;;;;;;4942560;28;20048;-65
2023/03/15 04:37:55;;;;;;;10.30;1.90;;;;;;;;;;4926730;28;20438;-66
2023/03/15 04:40:22;;;;;;;8.10;1.65;;;;;;;;;;4944148;28;20113;-65
2023/03/15 04:42:56;;;;;;;8.05;1.70;;;;;;;;;;4944840;28;20051;-65
2023/03/15 04:45:23;;;;;;;13.77;1.53;;;;;;;;;;4927138;29;20043;-65
2023/03/15 04:47:53;;;;;;;12.70;3.42;;;;;;;;;;4928322;29;20686;-65
2023/03/15 04:50:19;;;;;;;9.60;1.58;;;;;;;;;;4948605;28;20567;-65
2023/03/15 04:52:46;;;;;;;13.30;2.33;;;;;;;;;;4949615;28;20055;-65
2023/03/15 04:55:12;;;;;;;8.23;1.45;;;;;;;;;;4949393;28;20042;-65
2023/03/15 04:57:38;;;;;;;10.02;1.75;;;;;;;;;;4948344;28;20098;-65
2023/03/15 05:00:08;;;;;;;12.32;2.38;;;;;;;;;;4950190;28;20043;-65
2023/03/15 05:02:38;;;;;;;13.77;1.85;;;;;;;;;;4943307;28;20039;-65
2023/03/15 05:05:11;;;;;;;11.30;1.90;;;;;;;;;;4946745;28;20050;-65
2023/03/15 05:07:38;;;;;;;11.03;1.70;;;;;;;;;;4946862;28;20074;-65
2023/03/15 05:10:05;;;;;;;10.93;2.22;;;;;;;;;;4930508;29;20395;-65
2023/03/15 05:12:32;;;;;;;13.55;2.17;;;;;;;;;;4949202;28;20047;-65
2023/03/15 05:14:58;;;;;;;10.20;1.83;;;;;;;;;;4947756;28;20047;-65
2023/03/15 05:17:25;;;;;;;10.93;1.92;;;;;;;;;;4946793;28;20058;-65
2023/03/15 05:19:51;;;;;;;7.45;1.60;;;;;;;;;;4946797;28;20126;-65
2023/03/15 05:22:17;;;;;;;8.23;1.70;;;;;;;;;;4946912;28;20053;-65
2023/03/15 05:24:43;;;;;;;7.90;1.40;;;;;;;;;;4946041;28;20058;-65
2023/03/15 05:27:12;;;;;;;7.82;1.17;;;;;;;;;;4949065;28;20137;-65
2023/03/15 05:29:38;;;;;;;11.45;1.58;;;;;;;;;;4928468;29;20083;-65
2023/03/15 05:32:04;;;;;;;10.23;1.30;;;;;;;;;;4946520;28;22887;-65
2023/03/15 05:34:33;;;;;;;10.50;1.73;;;;;;;;;;4945962;28;20274;-65
2023/03/15 05:36:59;;;;;;;8.85;1.00;;;;;;;;;;4945132;28;20085;-65
2023/03/15 05:39:25;;;;;;;11.82;1.80;;;;;;;;;;4950397;28;20047;-65
2023/03/15 05:41:52;;;;;;;6.20;1.38;;;;;;;;;;4953427;28;20398;-65
2023/03/15 05:44:18;;;;;;;9.20;1.73;;;;;;;;;;4936662;29;20047;-65
2023/03/15 05:46:44;;;;;;;9.15;1.52;;;;;;;;;;4937881;29;20110;-65
2023/03/15 05:49:10;;;;;;;14.02;1.77;;;;;;;;;;4955376;28;20461;-64
2023/03/15 05:51:36;;;;;;;6.45;0.88;;;;;;;;;;4952855;28;20062;-65
2023/03/15 05:54:02;;;;;;;8.50;1.50;;;;;;;;;;4952228;28;20054;-66
2023/03/15 05:56:29;;;;;;;6.85;1.80;;;;;;;;;;4955133;28;20110;-66
2023/03/15 05:58:55;;;;;;;5.40;1.30;;;;;;;;;;4936496;29;20579;-66
2023/03/15 06:01:21;;;;;;;10.02;1.23;;;;;;;;;;4952262;28;20047;-66
2023/03/15 06:03:47;;;;;;;7.50;1.55;;;;;;;;;;4954327;28;20098;-66
2023/03/15 06:06:13;;;;;;;9.82;1.50;;;;;;;;;;4952772;28;20069;-66
2023/03/15 06:08:39;;;;;;;6.15;1.30;;;;;;;;;;4937931;29;20055;-66
2023/03/15 06:11:05;;;;;;;7.18;1.25;;;;;;;;;;4955633;28;20039;-66
2023/03/15 06:13:32;;;;;;;6.65;1.30;;;;;;;;;;4949510;28;20134;-66
2023/03/15 06:15:58;;;;;;;6.75;1.40;;;;;;;;;;4953660;28;20059;-65
2023/03/15 06:18:24;;;;;;;7.32;1.60;;;;;;;;;;4935569;29;20048;-66
2023/03/15 06:20:50;;;;;;;3.53;1.25;;;;;;;;;;4954136;28;20142;-65
2023/03/15 06:23:16;;;;;;;7.50;1.63;;;;;;;;;;4953784;28;20050;-65
2023/03/15 06:25:44;;;;;;;9.30;1.50;;;;;;;;;;4954601;28;20058;-67
2023/03/15 06:28:10;;;;;;;6.65;1.27;;;;;;;;;;4948850;28;20066;-65
2023/03/15 06:30:36;;;;;;;11.95;1.92;;;;;;;;;;4952315;28;20086;-65
2023/03/15 06:33:02;;;;;;;7.05;1.25;;;;;;;;;;4936584;28;20066;-65
2023/03/15 06:35:28;;;;;;;13.38;1.80;;;;;;;;;;4955740;28;20079;-65
2023/03/15 06:37:54;;;;;;;8.25;1.52;;;;;;;;;;4954239;28;20043;-65
2023/03/15 06:40:20;;;;;;;12.32;1.70;;;;;;;;;;4954231;28;20058;-65
2023/03/15 06:42:47;;;;;;;12.68;1.63;;;;;;;;;;4934632;29;20078;-65
2023/03/15 06:45:15;;;;;;;9.13;1.50;;;;;;;;;;4951573;28;20039;-65
2023/03/15 06:47:41;;;;;;;10.02;1.80;;;;;;;;;;4951061;28;20043;-66
2023/03/15 06:50:08;;;;;;;15.25;1.70;;;;;;;;;;4954314;28;20152;-65
2023/03/15 06:52:34;;;;;;;8.40;1.63;;;;;;;;;;4935156;29;20497;-65
2023/03/15 06:55:00;;;;;;;8.82;2.00;;;;;;;;;;4952054;28;20078;-65
2023/03/15 06:57:26;;;;;;;6.18;1.55;;;;;;;;;;4952804;28;20086;-65
2023/03/15 06:59:53;;;;;;;10.52;2.20;;;;;;;;;;4935642;29;20453;-65
2023/03/15 07:02:19;;;;;;;14.38;2.35;;;;;;;;;;4949604;28;20046;-65
2023/03/15 07:04:46;;;;;;;15.65;2.30;;;;;;;;;;4951032;28;20399;-65
2023/03/15 07:07:13;;;;;;;7.68;1.65;;;;;;;;;;4949845;28;20047;-65
2023/03/15 07:09:39;;;;;;;12.40;2.30;;;;;;;;;;4933903;29;20538;-65
2023/03/15 07:12:06;;;;;;;7.85;2.33;;;;;;;;;;4951226;28;20039;-65
2023/03/15 07:14:33;;;;;;;16.17;2.40;;;;;;;;;;4950557;28;20463;-65
2023/03/15 07:16:59;;;;;;;15.18;2.60;;;;;;;;;;4947294;28;20058;-65
2023/03/15 07:19:25;;;;;;;15.60;2.40;;;;;;;;;;4950808;28;20117;-65
2023/03/15 07:21:51;;;;;;;16.67;2.40;;;;;;;;;;4950816;28;20407;-66
2023/03/15 07:24:17;;;;;;;12.55;2.05;;;;;;;;;;4949190;28;20460;-65
2023/03/15 07:26:43;;;;;;;13.32;2.22;;;;;;;;;;4948417;28;20042;-66
2023/03/15 07:29:10;;;;;;;7.00;1.40;;;;;;;;;;4949943;28;20175;-65
2023/03/15 07:31:36;;;;;;;9.75;2.22;;;;;;;;;;4932251;29;20399;-66
2023/03/15 07:34:02;;;;;;;7.07;1.50;;;;;;;;;;4951123;28;20495;-66
2023/03/15 07:36:28;;;;;;;8.07;1.40;;;;;;;;;;4949455;28;20448;-66
2023/03/15 07:38:54;;;;;;;10.65;1.42;;;;;;;;;;4932617;29;20050;-66
2023/03/15 07:41:21;;;;;;;7.18;1.30;;;;;;;;;;4932166;28;20043;-66
2023/03/15 07:43:47;;;;;;;8.70;1.70;;;;;;;;;;4951601;28;20043;-66
2023/03/15 07:46:13;;;;;;;9.90;1.90;;;;;;;;;;4935201;29;20039;-65
2023/03/15 07:48:39;;;;;;;5.75;1.42;;;;;;;;;;4951792;28;20039;-66
2023/03/15 07:51:06;;;;;;;7.82;2.60;;;;;;;;;;4952395;28;20150;-66
2023/03/15 07:53:32;;;;;;;6.22;1.48;;;;;;;;;;4952127;28;20051;-66
2023/03/15 07:55:58;;;;;;;7.47;1.40;;;;;;;;;;4952040;28;20198;-66
2023/03/15 07:58:24;;;;;;;5.47;1.25;;;;;;;;;;4935477;29;20047;-66
2023/03/15 08:00:53;;;;;;;7.22;1.38;;;;;;;;;;4951439;28;20047;-66
2023/03/15 08:03:19;;;;;;;6.05;1.10;;;;;;;;;;4935276;29;20047;-66
2023/03/15 08:05:45;;;;;;;7.22;1.40;;;;;;;;;;4952222;28;20043;-66
2023/03/15 08:08:12;;;;;;;7.25;1.67;;;;;;;;;;4935221;29;20039;-65
2023/03/15 08:10:38;;;;;;;9.90;1.38;;;;;;;;;;4953137;28;20062;-66
2023/03/15 08:13:04;;;;;;;10.82;1.48;;;;;;;;;;4953127;28;20050;-66
2023/03/15 08:15:30;;;;;;;10.77;2.28;;;;;;;;;;4952778;28;20051;-66
2023/03/15 08:17:57;;;;;;;10.30;1.70;;;;;;;;;;4951743;28;20604;-66
2023/03/15 08:20:23;;;;;;;7.30;1.25;;;;;;;;;;4935185;29;20046;-66
2023/03/15 08:22:50;;;;;;;10.20;1.48;;;;;;;;;;4935482;29;20043;-66
2023/03/15 08:25:18;;;;;;;15.13;1.67;;;;;;;;;;4951262;28;20055;-66
2023/03/15 08:27:44;;;;;;;8.75;1.40;;;;;;;;;;4934754;28;20439;-66
2023/03/15 08:30:11;;;;;;;7.45;1.60;;;;;;;;;;4950694;28;20055;-66
2023/03/15 08:32:38;;;;;;;9.73;1.33;;;;;;;;;;4952831;28;20051;-66
2023/03/15 08:35:05;;;;;;;11.13;1.60;;;;;;;;;;4950840;28;20047;-66
2023/03/15 08:37:31;;;;;;;5.43;1.50;;;;;;;;;;4952515;28;20047;-66
2023/03/15 08:39:59;;;;;;;11.68;1.60;;;;;;;;;;4954182;28;20403;-66
2023/03/15 08:42:28;;;;;;;5.32;1.45;;;;;;;;;;4956644;28;20051;-66
2023/03/15 08:44:58;;;;;;;12.30;1.60;;;;;;;;;;4956181;28;20047;-66
2023/03/15 08:47:24;;;;;;;9.43;1.52;;;;;;;;;;4955817;28;20075;-66
2023/03/15 08:49:52;;;;;;;10.57;1.92;;;;;;;;;;4955470;28;20043;-67
2023/03/15 08:52:18;;;;;;;11.95;1.40;;;;;;;;;;4954672;28;20495;-66
2023/03/15 08:54:45;;;;;;;8.23;1.60;;;;;;;;;;4954711;28;20047;-66
2023/03/15 08:57:11;;;;;;;15.55;1.95;;;;;;;;;;4956658;28;20432;-66
2023/03/15 08:59:38;;;;;;;9.90;1.17;;;;;;;;;;4956379;28;20130;-66
2023/03/15 09:02:04;;;;;;;10.80;2.50;;;;;;;;;;4952928;28;20039;-66
2023/03/15 09:04:30;;;;;;;16.20;2.22;;;;;;;;;;4956359;28;20098;-66
2023/03/15 09:06:57;;;;;;;16.67;1.60;;;;;;;;;;4956137;28;20440;-66
2023/03/15 09:09:23;;;;;;;13.57;1.95;;;;;;;;;;4956194;28;20063;-66
2023/03/15 09:11:49;;;;;;;11.35;1.45;;;;;;;;;;4955752;28;20039;-66
2023/03/15 09:14:15;;;;;;;8.27;1.33;;;;;;;;;;4954292;28;20081;-66
2023/03/15 09:16:42;;;;;;;6.22;1.35;;;;;;;;;;4946976;28;20059;-65
2023/03/15 09:19:08;;;;;;;17.02;2.40;;;;;;;;;;4956394;28;20051;-66
2023/03/15 09:21:34;;;;;;;13.52;2.47;;;;;;;;;;4954527;28;20075;-65
2023/03/15 09:24:00;;;;;;;11.52;2.03;;;;;;;;;;4939528;28;20521;-65
2023/03/15 09:26:26;;;;;;;19.10;2.10;;;;;;;;;;4956837;28;20518;-65
2023/03/15 09:28:52;;;;;;;11.35;1.92;;;;;;;;;;4954088;28;20050;-65
2023/03/15 09:31:18;;;;;;;11.68;1.45;;;;;;;;;;4949206;28;20044;-65
2023/03/15 09:33:45;;;;;;;12.48;1.90;;;;;;;;;;4956768;28;20043;-65
2023/03/15 09:36:11;;;;;;;14.38;1.65;;;;;;;;;;4936668;28;20054;-65
2023/03/15 09:38:38;;;;;;;9.85;1.70;;;;;;;;;;4956430;28;20062;-65
2023/03/15 09:41:05;;;;;;;11.18;1.65;;;;;;;;;;4952329;28;20470;-65
2023/03/15 09:43:39;;;;;;;14.68;1.73;;;;;;;;;;4952677;28;20078;-65
2023/03/15 09:46:11;;;;;;;9.10;1.67;;;;;;;;;;4953156;28;20047;-66
2023/03/15 09:48:40;;;;;;;9.65;1.58;;;;;;;;;;4952144;28;20066;-65
2023/03/15 09:51:14;;;;;;;11.68;1.70;;;;;;;;;;4938200;28;20115;-66
2023/03/15 09:53:47;;;;;;;17.23;1.52;;;;;;;;;;4933128;29;20040;-66
2023/03/15 09:56:22;;;;;;;15.88;1.67;;;;;;;;;;4933387;29;20403;-66
2023/03/15 09:58:49;;;;;;;15.23;1.92;;;;;;;;;;4930976;29;20043;-66
2023/03/15 10:01:16;;;;;;;10.65;2.55;;;;;;;;;;4932731;29;20082;-66
2023/03/15 10:03:50;;;;;;;12.55;1.85;;;;;;;;;;4931716;29;20043;-66
2023/03/15 10:06:18;;;;;;;11.70;2.13;;;;;;;;;;4931878;29;20138;-66
2023/03/15 10:08:45;;;;;;;14.60;3.30;;;;;;;;;;4914897;29;20063;-66
2023/03/15 10:11:14;;;;;;;12.50;1.90;;;;;;;;;;4914989;29;20369;-66
2023/03/15 10:13:46;;;;;;;10.30;1.92;;;;;;;;;;4933139;29;20130;-66
2023/03/15 10:16:24;;;;;;;11.05;2.38;;;;;;;;;;4931976;29;20047;-66
2023/03/15 10:19:13;;;;;;;12.00;1.70;;;;;;;;;;4914311;29;20078;-66
2023/03/15 10:21:43;;;;;;;9.90;2.03;;;;;;;;;;4922260;29;20107;-66
2023/03/15 10:24:17;;;;;;;13.27;1.90;;;;;;;;;;4932440;29;20062;-66
2023/03/15 10:26:43;;;;;;;14.32;1.70;;;;;;;;;;4930621;29;20051;-66
2023/03/15 10:29:16;;;;;;;21.17;2.38;;;;;;;;;;4932482;29;20051;-66
2023/03/15 10:31:48;;;;;;;9.18;1.50;;;;;;;;;;4932248;29;20054;-66
2023/03/15 10:34:15;;;;;;;14.43;2.17;;;;;;;;;;4932367;29;20459;-66
2023/03/15 10:36:45;;;;;;;12.85;1.77;;;;;;;;;;4932047;29;20065;-66
2023/03/15 10:39:11;;;;;;;9.02;1.42;;;;;;;;;;4931527;29;20160;-66
2023/03/15 10:41:39;;;;;;;16.10;1.60;;;;;;;;;;4932362;29;20496;-66
2023/03/15 10:44:06;;;;;;;8.38;2.05;;;;;;;;;;4914060;29;20079;-67
2023/03/15 10:46:34;;;;;;;10.90;2.03;;;;;;;;;;4929371;29;20472;-66
2023/03/15 10:49:11;;;;;;;11.45;1.98;;;;;;;;;;4931835;29;20094;-66
2023/03/15 10:51:40;;;;;;;10.40;2.03;;;;;;;;;;4947934;28;20146;-66
2023/03/15 10:54:15;;;;;;;6.55;1.40;;;;;;;;;;4949475;28;20050;-66
2023/03/15 10:56:54;;;;;;;8.15;1.50;;;;;;;;;;4951643;28;20122;-66
2023/03/15 10:59:25;;;;;;;11.95;1.52;;;;;;;;;;4934711;28;20109;-66
2023/03/15 11:01:53;;;;;;;9.95;1.80;;;;;;;;;;4949308;28;20047;-66
2023/03/15 11:04:20;;;;;;;8.98;1.52;;;;;;;;;;4951256;28;20395;-66
2023/03/15 11:06:49;;;;;;;10.32;1.73;;;;;;;;;;4952241;28;20118;-66
2023/03/15 11:09:24;;;;;;;12.30;1.33;;;;;;;;;;4951377;28;20169;-66
2023/03/15 11:11:59;;;;;;;9.95;2.00;;;;;;;;;;4950679;28;20102;-66
2023/03/15 11:14:35;;;;;;;12.38;2.00;;;;;;;;;;4932821;28;20047;-67
2023/03/15 11:17:02;;;;;;;9.80;2.00;;;;;;;;;;4919847;28;20047;-66
2023/03/15 11:19:31;;;;;;;10.77;2.20;;;;;;;;;;4951136;28;20104;-66
2023/03/15 11:21:58;;;;;;;11.48;1.60;;;;;;;;;;4953086;28;20045;-66
2023/03/15 11:24:25;;;;;;;8.73;1.58;;;;;;;;;;4953253;28;20040;-67
2023/03/15 11:26:53;;;;;;;9.02;1.70;;;;;;;;;;4937355;29;20047;-66
2023/03/15 11:29:23;;;;;;;9.88;1.77;;;;;;;;;;4952965;28;20055;-66
2023/03/15 11:31:50;;;;;;;12.15;2.15;;;;;;;;;;4953658;28;20137;-67
2023/03/15 11:34:16;;;;;;;9.10;1.70;;;;;;;;;;4954539;28;20043;-67
2023/03/15 11:36:44;;;;;;;11.55;1.70;;;;;;;;;;4952745;28;20043;-67
2023/03/15 11:39:15;;;;;;;9.10;1.95;;;;;;;;;;4953568;28;20561;-67
2023/03/15 11:41:54;;;;;;;10.40;2.53;;;;;;;;;;4952226;28;20043;-67
2023/03/15 11:44:32;;;;;;;8.55;1.90;;;;;;;;;;4953810;28;20054;-67
2023/03/15 11:47:03;;;;;;;7.45;1.70;;;;;;;;;;4953345;28;20501;-67
2023/03/15 11:49:29;;;;;;;11.82;2.58;;;;;;;;;;4952123;28;20482;-66
2023/03/15 11:51:56;;;;;;;11.52;2.50;;;;;;;;;;4935434;29;20160;-66
2023/03/15 11:54:22;;;;;;;7.55;1.95;;;;;;;;;;4935228;29;20048;-66
2023/03/15 11:56:53;;;;;;;10.18;1.50;;;;;;;;;;4933393;29;20099;-66
2023/03/15 11:59:24;;;;;;;6.60;1.70;;;;;;;;;;4917211;29;20051;-66
2023/03/15 12:01:56;;;;;;;10.23;2.15;;;;;;;;;;4933610;29;20062;-66
2023/03/15 12:04:27;;;;;;;10.85;1.88;;;;;;;;;;4934205;29;20411;-66
2023/03/15 12:06:54;;;;;;;7.38;2.22;;;;;;;;;;4933204;29;20135;-67
2023/03/15 12:09:35;;;;;;;7.57;1.88;;;;;;;;;;4917060;29;20094;-67
2023/03/15 12:12:03;;;;;;;7.35;1.60;;;;;;;;;;4931916;29;20510;-66
2023/03/15 12:14:38;;;;;;;16.25;2.22;;;;;;;;;;4932781;29;20055;-66
2023/03/15 12:17:23;;;;;;;6.15;1.77;;;;;;;;;;4935004;29;20071;-66
2023/03/15 12:20:08;;;;;;;12.07;2.20;;;;;;;;;;4933647;29;20122;-66
2023/03/15 12:22:35;;;;;;;9.35;1.80;;;;;;;;;;4933764;29;20111;-66
2023/03/15 12:25:11;;;;;;;5.95;1.55;;;;;;;;;;4934013;29;20050;-66
2023/03/15 12:27:38;;;;;;;7.75;1.80;;;;;;;;;;4917439;29;20052;-66
2023/03/15 12:30:19;;;;;;;8.45;2.20;;;;;;;;;;4933663;29;20071;-66
2023/03/15 12:32:48;;;;;;;11.20;2.28;;;;;;;;;;4933080;29;20040;-67
2023/03/15 12:35:18;;;;;;;10.07;1.67;;;;;;;;;;4933801;29;20054;-66
2023/03/15 12:37:46;;;;;;;8.68;2.03;;;;;;;;;;4934408;29;20046;-66
2023/03/15 12:40:15;;;;;;;12.23;2.25;;;;;;;;;;4932965;29;20043;-66
2023/03/15 12:42:41;;;;;;;6.93;2.35;;;;;;;;;;4916378;29;20048;-67
2023/03/15 12:45:16;;;;;;;8.15;2.05;;;;;;;;;;4934536;29;20036;-66
2023/03/15 12:47:47;;;;;;;6.35;1.50;;;;;;;;;;4933578;29;20055;-66
2023/03/15 12:50:33;;;;;;;8.70;2.60;;;;;;;;;;4933315;29;20147;-66
2023/03/15 12:53:00;;;;;;;7.93;1.90;;;;;;;;;;4922804;29;20052;-66
2023/03/15 12:55:31;;;;;;;8.00;1.88;;;;;;;;;;4933780;29;20401;-67
2023/03/15 12:57:59;;;;;;;7.88;2.05;;;;;;;;;;4932114;29;20111;-66
2023/03/15 13:00:27;;;;;;;8.48;1.73;;;;;;;;;;4915544;29;20466;-66
2023/03/15 13:03:05;;;;;;;9.20;2.22;;;;;;;;;;4932293;29;20053;-66
2023/03/15 13:05:51;;;;;;;7.28;1.58;;;;;;;;;;4932607;29;20080;-66
2023/03/15 13:08:25;;;;;;;7.32;1.65;;;;;;;;;;4927684;29;20435;-67
2023/03/15 13:11:10;;;;;;;8.23;1.80;;;;;;;;;;4931075;29;20131;-66
2023/03/15 13:13:36;;;;;;;6.85;1.70;;;;;;;;;;4920587;29;20051;-67
2023/03/15 13:16:06;;;;;;;9.18;1.48;;;;;;;;;;4930636;29;20071;-67
2023/03/15 13:18:36;;;;;;;10.88;1.83;;;;;;;;;;4916947;29;20404;-66
2023/03/15 13:21:11;;;;;;;7.60;1.50;;;;;;;;;;4931367;29;20044;-66
2023/03/15 13:23:37;;;;;;;10.52;2.40;;;;;;;;;;4934727;29;20048;-66
2023/03/15 13:26:16;;;;;;;6.38;1.45;;;;;;;;;;4937189;29;20099;-66
2023/03/15 13:28:51;;;;;;;9.40;2.00;;;;;;;;;;4932946;29;20083;-66
2023/03/15 13:31:20;;;;;;;7.85;1.60;;;;;;;;;;4931710;29;20048;-66
2023/03/15 13:33:51;;;;;;;6.25;1.88;;;;;;;;;;4928803;29;20059;-66
2023/03/15 13:36:30;;;;;;;8.35;1.55;;;;;;;;;;4931618;29;20048;-66
2023/03/15 13:38:56;;;;;;;8.70;1.85;;;;;;;;;;4930636;29;20480;-66
2023/03/15 13:41:24;;;;;;;7.15;1.50;;;;;;;;;;4933699;29;20130;-66
2023/03/15 13:43:51;;;;;;;5.93;1.25;;;;;;;;;;4929571;29;20500;-66
2023/03/15 13:46:18;;;;;;;8.40;1.92;;;;;;;;;;4933690;29;20079;-66
2023/03/15 13:48:46;;;;;;;8.15;1.80;;;;;;;;;;4910151;29;20470;-66
2023/03/15 13:51:18;;;;;;;6.43;1.20;;;;;;;;;;4944367;28;20526;-66
2023/03/15 13:53:45;;;;;;;8.23;1.70;;;;;;;;;;4953543;28;20054;-64
2023/03/15 13:56:15;;;;;;;8.63;1.98;;;;;;;;;;4952072;28;20102;-70
2023/03/15 13:58:42;;;;;;;10.68;2.25;;;;;;;;;;4953000;28;20062;-68
2023/03/15 14:01:10;;;;;;;5.65;1.50;;;;;;;;;;4955281;28;20051;-69
2023/03/15 14:29:36;;;;;;;10.93;1.80;;;;;;;;;;5038295;23;20058;-63
2023/03/15 14:32:04;;;;;;;9.57;1.95;;;;;;;;;;4973142;28;20112;-65
2023/03/15 14:34:32;;;;;;;9.65;1.67;;;;;;;;;;4947475;28;20129;-73
2023/03/15 14:37:03;;;;;;;8.02;1.42;;;;;;;;;;4950160;28;20043;-74
2023/03/15 14:39:31;;;;;;;12.52;2.25;;;;;;;;;;4966876;28;20053;-69
2023/03/15 14:41:57;;;;;;;8.43;1.70;;;;;;;;;;4966977;28;20509;-82
2023/03/15 14:44:23;;;;;;;9.80;2.17;;;;;;;;;;4934905;28;20047;-83
2023/03/15 14:46:50;;;;;;;9.07;1.70;;;;;;;;;;4967913;28;20481;-64
2023/03/15 14:49:23;;;;;;;9.10;1.50;;;;;;;;;;4967732;28;20031;-62
2023/03/15 14:51:52;;;;;;;6.30;1.27;;;;;;;;;;4964207;28;20051;-64
2023/03/15 14:54:18;;;;;;;8.52;1.40;;;;;;;;;;4965648;28;20039;-80
2023/03/15 14:56:44;;;;;;;13.63;1.98;;;;;;;;;;4946905;28;20046;-64
2023/03/15 14:59:11;;;;;;;7.63;1.42;;;;;;;;;;4967771;28;20402;-65
2023/03/15 15:01:39;;;;;;;9.90;1.70;;;;;;;;;;4966937;28;21801;-64
2023/03/15 15:04:06;;;;;;;7.10;1.25;;;;;;;;;;4967736;28;20568;-65
2023/03/15 15:06:35;;;;;;;9.00;1.65;;;;;;;;;;4968060;28;20133;-64
2023/03/15 15:09:02;;;;;;;9.38;1.60;;;;;;;;;;4967948;28;20041;-65
2023/03/15 15:11:28;;;;;;;9.98;1.92;;;;;;;;;;4966455;28;20051;-65
2023/03/15 15:13:55;;;;;;;4.75;1.40;;;;;;;;;;4965748;28;20035;-64